sensor_id;sensor_type;location;lat;lon;timestamp;temperature;humidity
76291;DHT22;65100;46.884;17.410;2023-12-22T00:00:35;8.88;71.18
76291;DHT22;65100;46.884;17.410;2023-12-22T00:03:00;8.82;70.23
76291;DHT22;65100;46.884;17.410;2023-12-22T00:05:26;9.01;70.37
76291;DHT22;65100;46.884;17.410;2023-12-22T00:07:51;9.12;70.35
76291;DHT22;65100;46.884;17.410;2023-12-22T00:10:16;8.92;70.69
76291;DHT22;65100;46.884;17.410;2023-12-22T00:12:42;8.97;70.40
76291;DHT22;65100;46.884;17.410;2023-12-22T00:15:07;9.01;71.25
76291;DHT22;65100;46.884;17.410;2023-12-22T00:17:33;9.10;69.63
76291;DHT22;65100;46.884;17.410;2023-12-22T00:19:58;9.36;70.28
76291;DHT22;65100;46.884;17.410;2023-12-22T00:22:28;9.38;70.57
76291;DHT22;65100;46.884;17.410;2023-12-22T00:24:53;9.25;73.01
76291;DHT22;65100;46.884;17.410;2023-12-22T00:27:19;9.15;72.77
76291;DHT22;65100;46.884;17.410;2023-12-22T00:29:44;9.16;73.44
76291;DHT22;65100;46.884;17.410;2023-12-22T00:32:09;9.14;74.80
76291;DHT22;65100;46.884;17.410;2023-12-22T00:34:35;9.02;76.06
76291;DHT22;65100;46.884;17.410;2023-12-22T00:37:01;9.00;76.12
76291;DHT22;65100;46.884;17.410;2023-12-22T00:39:27;9.01;77.38
76291;DHT22;65100;46.884;17.410;2023-12-22T00:41:52;8.92;77.94
76291;DHT22;65100;46.884;17.410;2023-12-22T00:44:18;8.74;78.76
76291;DHT22;65100;46.884;17.410;2023-12-22T00:46:43;8.58;79.82
76291;DHT22;65100;46.884;17.410;2023-12-22T00:49:09;8.51;80.07
76291;DHT22;65100;46.884;17.410;2023-12-22T00:51:34;8.29;80.33
76291;DHT22;65100;46.884;17.410;2023-12-22T00:53:59;8.16;80.70
76291;DHT22;65100;46.884;17.410;2023-12-22T00:56:25;8.04;81.32
76291;DHT22;65100;46.884;17.410;2023-12-22T00:58:50;8.03;81.66
76291;DHT22;65100;46.884;17.410;2023-12-22T01:01:16;7.90;81.89
76291;DHT22;65100;46.884;17.410;2023-12-22T01:03:41;7.85;82.17
76291;DHT22;65100;46.884;17.410;2023-12-22T01:06:07;7.83;82.47
76291;DHT22;65100;46.884;17.410;2023-12-22T01:08:32;7.78;82.62
76291;DHT22;65100;46.884;17.410;2023-12-22T01:10:57;7.76;82.67
76291;DHT22;65100;46.884;17.410;2023-12-22T01:13:23;7.71;82.86
76291;DHT22;65100;46.884;17.410;2023-12-22T01:15:48;7.66;83.20
76291;DHT22;65100;46.884;17.410;2023-12-22T01:18:14;7.65;83.43
76291;DHT22;65100;46.884;17.410;2023-12-22T01:20:39;7.61;83.66
76291;DHT22;65100;46.884;17.410;2023-12-22T01:23:05;7.63;83.63
76291;DHT22;65100;46.884;17.410;2023-12-22T01:25:30;7.63;84.03
76291;DHT22;65100;46.884;17.410;2023-12-22T01:27:56;7.58;83.96
76291;DHT22;65100;46.884;17.410;2023-12-22T01:30:21;7.55;84.20
76291;DHT22;65100;46.884;17.410;2023-12-22T01:32:46;7.35;84.79
76291;DHT22;65100;46.884;17.410;2023-12-22T01:35:12;7.25;85.41
76291;DHT22;65100;46.884;17.410;2023-12-22T01:37:37;7.52;81.82
76291;DHT22;65100;46.884;17.410;2023-12-22T01:40:03;7.49;82.02
76291;DHT22;65100;46.884;17.410;2023-12-22T01:42:29;7.51;80.72
76291;DHT22;65100;46.884;17.410;2023-12-22T01:44:55;7.58;80.37
76291;DHT22;65100;46.884;17.410;2023-12-22T01:47:20;7.52;80.97
76291;DHT22;65100;46.884;17.410;2023-12-22T01:49:46;7.42;81.47
76291;DHT22;65100;46.884;17.410;2023-12-22T01:52:11;7.51;81.40
76291;DHT22;65100;46.884;17.410;2023-12-22T01:54:37;7.49;81.33
76291;DHT22;65100;46.884;17.410;2023-12-22T01:57:03;7.44;81.44
76291;DHT22;65100;46.884;17.410;2023-12-22T01:59:30;7.56;79.42
76291;DHT22;65100;46.884;17.410;2023-12-22T02:02:02;7.63;79.95
76291;DHT22;65100;46.884;17.410;2023-12-22T02:04:30;7.65;80.25
76291;DHT22;65100;46.884;17.410;2023-12-22T02:06:57;7.72;79.10
76291;DHT22;65100;46.884;17.410;2023-12-22T02:09:24;7.79;79.31
76291;DHT22;65100;46.884;17.410;2023-12-22T02:11:49;7.69;78.57
76291;DHT22;65100;46.884;17.410;2023-12-22T02:14:14;7.69;78.37
76291;DHT22;65100;46.884;17.410;2023-12-22T02:19:41;7.63;79.16
76291;DHT22;65100;46.884;17.410;2023-12-22T02:22:09;7.54;79.35
76291;DHT22;65100;46.884;17.410;2023-12-22T02:24:34;7.41;79.56
76291;DHT22;65100;46.884;17.410;2023-12-22T02:27:05;7.41;79.58
76291;DHT22;65100;46.884;17.410;2023-12-22T02:29:34;7.31;80.13
76291;DHT22;65100;46.884;17.410;2023-12-22T02:32:07;7.35;80.25
76291;DHT22;65100;46.884;17.410;2023-12-22T02:34:37;7.52;80.35
76291;DHT22;65100;46.884;17.410;2023-12-22T02:37:09;7.44;79.60
76291;DHT22;65100;46.884;17.410;2023-12-22T02:39:35;7.22;80.65
76291;DHT22;65100;46.884;17.410;2023-12-22T02:42:02;7.22;80.18
76291;DHT22;65100;46.884;17.410;2023-12-22T02:44:29;7.00;81.64
76291;DHT22;65100;46.884;17.410;2023-12-22T02:46:54;7.03;81.78
76291;DHT22;65100;46.884;17.410;2023-12-22T02:49:20;7.07;80.36
76291;DHT22;65100;46.884;17.410;2023-12-22T02:51:45;6.94;80.91
76291;DHT22;65100;46.884;17.410;2023-12-22T02:54:11;7.01;80.90
76291;DHT22;65100;46.884;17.410;2023-12-22T02:56:36;6.93;80.89
76291;DHT22;65100;46.884;17.410;2023-12-22T02:59:02;7.08;80.75
76291;DHT22;65100;46.884;17.410;2023-12-22T03:01:27;7.14;80.04
76291;DHT22;65100;46.884;17.410;2023-12-22T03:03:52;7.01;79.82
76291;DHT22;65100;46.884;17.410;2023-12-22T03:06:18;6.95;80.69
76291;DHT22;65100;46.884;17.410;2023-12-22T03:08:43;7.00;80.04
76291;DHT22;65100;46.884;17.410;2023-12-22T03:11:09;6.94;79.78
76291;DHT22;65100;46.884;17.410;2023-12-22T03:13:34;6.94;80.62
76291;DHT22;65100;46.884;17.410;2023-12-22T03:16:00;7.08;79.35
76291;DHT22;65100;46.884;17.410;2023-12-22T03:18:25;7.15;79.29
76291;DHT22;65100;46.884;17.410;2023-12-22T03:20:50;7.28;78.93
76291;DHT22;65100;46.884;17.410;2023-12-22T03:23:16;7.21;78.32
76291;DHT22;65100;46.884;17.410;2023-12-22T03:25:41;7.18;78.08
76291;DHT22;65100;46.884;17.410;2023-12-22T03:28:06;7.18;78.51
76291;DHT22;65100;46.884;17.410;2023-12-22T03:30:32;7.34;78.02
76291;DHT22;65100;46.884;17.410;2023-12-22T03:32:57;7.48;76.67
76291;DHT22;65100;46.884;17.410;2023-12-22T03:35:23;7.42;76.45
76291;DHT22;65100;46.884;17.410;2023-12-22T03:37:48;7.45;75.97
76291;DHT22;65100;46.884;17.410;2023-12-22T03:40:14;7.66;75.09
76291;DHT22;65100;46.884;17.410;2023-12-22T03:42:39;7.63;75.56
76291;DHT22;65100;46.884;17.410;2023-12-22T03:45:05;7.69;75.14
76291;DHT22;65100;46.884;17.410;2023-12-22T03:47:31;7.78;75.58
76291;DHT22;65100;46.884;17.410;2023-12-22T03:49:57;7.55;74.94
76291;DHT22;65100;46.884;17.410;2023-12-22T03:52:22;7.62;75.83
76291;DHT22;65100;46.884;17.410;2023-12-22T03:54:48;7.63;75.00
76291;DHT22;65100;46.884;17.410;2023-12-22T03:57:13;7.78;75.59
76291;DHT22;65100;46.884;17.410;2023-12-22T03:59:38;7.81;75.52
76291;DHT22;65100;46.884;17.410;2023-12-22T04:02:04;7.79;75.39
76291;DHT22;65100;46.884;17.410;2023-12-22T04:04:29;7.62;75.49
76291;DHT22;65100;46.884;17.410;2023-12-22T04:06:55;7.48;75.86
76291;DHT22;65100;46.884;17.410;2023-12-22T04:09:20;7.39;75.71
76291;DHT22;65100;46.884;17.410;2023-12-22T04:11:45;7.41;75.92
76291;DHT22;65100;46.884;17.410;2023-12-22T04:14:11;7.32;75.42
76291;DHT22;65100;46.884;17.410;2023-12-22T04:16:37;7.09;75.99
76291;DHT22;65100;46.884;17.410;2023-12-22T04:19:03;7.01;75.72
76291;DHT22;65100;46.884;17.410;2023-12-22T04:21:28;7.14;76.02
76291;DHT22;65100;46.884;17.410;2023-12-22T04:23:54;7.25;75.00
76291;DHT22;65100;46.884;17.410;2023-12-22T04:26:19;7.27;74.01
76291;DHT22;65100;46.884;17.410;2023-12-22T04:28:45;7.25;73.75
76291;DHT22;65100;46.884;17.410;2023-12-22T04:31:10;7.34;73.97
76291;DHT22;65100;46.884;17.410;2023-12-22T04:33:35;7.42;72.94
76291;DHT22;65100;46.884;17.410;2023-12-22T04:36:01;7.38;72.71
76291;DHT22;65100;46.884;17.410;2023-12-22T04:38:26;7.32;71.66
76291;DHT22;65100;46.884;17.410;2023-12-22T04:40:52;7.21;71.61
76291;DHT22;65100;46.884;17.410;2023-12-22T04:43:17;7.22;71.95
76291;DHT22;65100;46.884;17.410;2023-12-22T04:45:43;6.93;72.32
76291;DHT22;65100;46.884;17.410;2023-12-22T04:48:08;6.88;72.43
76291;DHT22;65100;46.884;17.410;2023-12-22T04:50:33;7.00;72.45
76291;DHT22;65100;46.884;17.410;2023-12-22T04:52:59;6.94;72.20
76291;DHT22;65100;46.884;17.410;2023-12-22T04:55:24;6.88;71.94
76291;DHT22;65100;46.884;17.410;2023-12-22T04:57:50;7.03;71.02
76291;DHT22;65100;46.884;17.410;2023-12-22T05:00:15;7.08;70.42
76291;DHT22;65100;46.884;17.410;2023-12-22T05:02:41;7.12;69.76
76291;DHT22;65100;46.884;17.410;2023-12-22T05:05:07;6.95;68.46
76291;DHT22;65100;46.884;17.410;2023-12-22T05:07:33;7.09;69.06
76291;DHT22;65100;46.884;17.410;2023-12-22T05:09:59;7.00;68.38
76291;DHT22;65100;46.884;17.410;2023-12-22T05:12:24;7.07;67.45
76291;DHT22;65100;46.884;17.410;2023-12-22T05:14:49;7.09;66.63
76291;DHT22;65100;46.884;17.410;2023-12-22T05:17:15;7.22;66.33
76291;DHT22;65100;46.884;17.410;2023-12-22T05:19:40;7.28;66.35
76291;DHT22;65100;46.884;17.410;2023-12-22T05:22:06;7.39;67.14
76291;DHT22;65100;46.884;17.410;2023-12-22T05:24:31;7.41;65.63
76291;DHT22;65100;46.884;17.410;2023-12-22T05:26:57;7.39;65.49
76291;DHT22;65100;46.884;17.410;2023-12-22T05:29:22;7.47;65.11
76291;DHT22;65100;46.884;17.410;2023-12-22T05:31:47;7.49;66.67
76291;DHT22;65100;46.884;17.410;2023-12-22T05:34:13;7.49;66.11
76291;DHT22;65100;46.884;17.410;2023-12-22T05:36:38;7.45;66.22
76291;DHT22;65100;46.884;17.410;2023-12-22T05:39:04;7.45;65.55
76291;DHT22;65100;46.884;17.410;2023-12-22T05:41:29;7.49;66.85
76291;DHT22;65100;46.884;17.410;2023-12-22T05:43:55;7.44;66.17
76291;DHT22;65100;46.884;17.410;2023-12-22T05:46:20;7.38;65.23
76291;DHT22;65100;46.884;17.410;2023-12-22T05:48:46;7.35;66.62
76291;DHT22;65100;46.884;17.410;2023-12-22T05:51:11;7.44;65.90
76291;DHT22;65100;46.884;17.410;2023-12-22T05:53:41;7.44;66.27
76291;DHT22;65100;46.884;17.410;2023-12-22T05:56:20;7.41;66.84
76291;DHT22;65100;46.884;17.410;2023-12-22T05:58:45;7.41;66.92
76291;DHT22;65100;46.884;17.410;2023-12-22T06:01:18;7.28;66.24
76291;DHT22;65100;46.884;17.410;2023-12-22T06:03:46;7.24;66.45
76291;DHT22;65100;46.884;17.410;2023-12-22T06:06:12;7.27;66.80
76291;DHT22;65100;46.884;17.410;2023-12-22T06:08:38;7.25;66.79
76291;DHT22;65100;46.884;17.410;2023-12-22T06:11:04;7.19;67.50
76291;DHT22;65100;46.884;17.410;2023-12-22T06:13:30;7.17;65.83
76291;DHT22;65100;46.884;17.410;2023-12-22T06:15:55;7.09;66.37
76291;DHT22;65100;46.884;17.410;2023-12-22T06:18:21;6.94;66.72
76291;DHT22;65100;46.884;17.410;2023-12-22T06:20:46;7.11;67.56
76291;DHT22;65100;46.884;17.410;2023-12-22T06:23:12;7.19;66.78
76291;DHT22;65100;46.884;17.410;2023-12-22T06:25:37;7.24;66.07
76291;DHT22;65100;46.884;17.410;2023-12-22T06:28:03;7.21;65.58
76291;DHT22;65100;46.884;17.410;2023-12-22T06:30:29;7.11;66.63
76291;DHT22;65100;46.884;17.410;2023-12-22T06:32:55;7.03;66.20
76291;DHT22;65100;46.884;17.410;2023-12-22T06:35:21;7.07;66.68
76291;DHT22;65100;46.884;17.410;2023-12-22T06:37:49;7.03;66.34
76291;DHT22;65100;46.884;17.410;2023-12-22T06:40:15;7.04;66.54
76291;DHT22;65100;46.884;17.410;2023-12-22T06:42:40;7.00;66.18
76291;DHT22;65100;46.884;17.410;2023-12-22T06:45:06;6.81;66.63
76291;DHT22;65100;46.884;17.410;2023-12-22T06:47:32;6.83;67.53
76291;DHT22;65100;46.884;17.410;2023-12-22T06:49:57;6.90;66.92
76291;DHT22;65100;46.884;17.410;2023-12-22T06:52:22;6.88;66.68
76291;DHT22;65100;46.884;17.410;2023-12-22T06:54:48;7.01;66.65
76291;DHT22;65100;46.884;17.410;2023-12-22T06:57:13;7.01;67.17
76291;DHT22;65100;46.884;17.410;2023-12-22T06:59:39;7.54;66.25
76291;DHT22;65100;46.884;17.410;2023-12-22T07:02:05;8.10;65.25
76291;DHT22;65100;46.884;17.410;2023-12-22T07:05:00;8.50;62.81
76291;DHT22;65100;46.884;17.410;2023-12-22T07:07:32;8.97;61.93
76291;DHT22;65100;46.884;17.410;2023-12-22T07:09:57;9.24;60.90
76291;DHT22;65100;46.884;17.410;2023-12-22T07:12:23;8.72;61.27
76291;DHT22;65100;46.884;17.410;2023-12-22T07:14:48;8.64;61.51
76291;DHT22;65100;46.884;17.410;2023-12-22T07:17:14;8.65;61.52
76291;DHT22;65100;46.884;17.410;2023-12-22T07:19:39;8.51;62.18
76291;DHT22;65100;46.884;17.410;2023-12-22T07:22:04;8.68;62.17
76291;DHT22;65100;46.884;17.410;2023-12-22T07:24:30;8.77;62.07
76291;DHT22;65100;46.884;17.410;2023-12-22T07:26:56;8.82;62.22
76291;DHT22;65100;46.884;17.410;2023-12-22T07:29:21;8.97;61.40
76291;DHT22;65100;46.884;17.410;2023-12-22T07:31:46;8.65;61.74
76291;DHT22;65100;46.884;17.410;2023-12-22T07:34:12;8.44;62.88
76291;DHT22;65100;46.884;17.410;2023-12-22T07:36:37;8.32;63.00
76291;DHT22;65100;46.884;17.410;2023-12-22T07:39:03;7.97;63.71
76291;DHT22;65100;46.884;17.410;2023-12-22T07:41:28;8.00;63.64
76291;DHT22;65100;46.884;17.410;2023-12-22T07:43:54;8.12;63.08
76291;DHT22;65100;46.884;17.410;2023-12-22T07:46:20;8.38;62.72
76291;DHT22;65100;46.884;17.410;2023-12-22T07:48:46;8.43;63.29
76291;DHT22;65100;46.884;17.410;2023-12-22T07:51:11;8.34;62.40
76291;DHT22;65100;46.884;17.410;2023-12-22T07:53:37;8.47;62.26
76291;DHT22;65100;46.884;17.410;2023-12-22T07:56:03;8.81;61.75
76291;DHT22;65100;46.884;17.410;2023-12-22T07:58:31;8.94;61.26
76291;DHT22;65100;46.884;17.410;2023-12-22T08:00:58;8.67;61.93
76291;DHT22;65100;46.884;17.410;2023-12-22T08:03:23;8.63;62.66
76291;DHT22;65100;46.884;17.410;2023-12-22T08:05:49;8.37;63.58
76291;DHT22;65100;46.884;17.410;2023-12-22T08:08:14;8.50;62.24
76291;DHT22;65100;46.884;17.410;2023-12-22T08:10:41;8.27;62.99
76291;DHT22;65100;46.884;17.410;2023-12-22T08:13:06;8.07;62.35
76291;DHT22;65100;46.884;17.410;2023-12-22T08:15:31;8.06;63.65
76291;DHT22;65100;46.884;17.410;2023-12-22T08:17:57;8.10;64.39
76291;DHT22;65100;46.884;17.410;2023-12-22T08:20:23;8.17;63.63
76291;DHT22;65100;46.884;17.410;2023-12-22T08:22:49;8.10;63.92
76291;DHT22;65100;46.884;17.410;2023-12-22T08:25:15;8.12;63.91
76291;DHT22;65100;46.884;17.410;2023-12-22T08:27:42;8.06;63.68
76291;DHT22;65100;46.884;17.410;2023-12-22T08:30:11;8.27;63.42
76291;DHT22;65100;46.884;17.410;2023-12-22T08:32:37;8.51;62.44
76291;DHT22;65100;46.884;17.410;2023-12-22T08:35:02;8.44;62.25
76291;DHT22;65100;46.884;17.410;2023-12-22T08:37:29;8.50;60.51
76291;DHT22;65100;46.884;17.410;2023-12-22T08:39:55;8.53;60.44
76291;DHT22;65100;46.884;17.410;2023-12-22T08:42:20;8.64;60.47
76291;DHT22;65100;46.884;17.410;2023-12-22T08:44:47;8.64;60.71
76291;DHT22;65100;46.884;17.410;2023-12-22T08:47:13;8.87;59.92
76291;DHT22;65100;46.884;17.410;2023-12-22T08:49:38;9.04;58.91
76291;DHT22;65100;46.884;17.410;2023-12-22T08:52:04;9.10;59.97
76291;DHT22;65100;46.884;17.410;2023-12-22T08:54:30;8.94;61.72
76291;DHT22;65100;46.884;17.410;2023-12-22T08:56:55;8.75;60.09
76291;DHT22;65100;46.884;17.410;2023-12-22T08:59:21;8.80;60.62
76291;DHT22;65100;46.884;17.410;2023-12-22T09:01:46;8.85;59.07
76291;DHT22;65100;46.884;17.410;2023-12-22T09:04:12;8.97;59.64
76291;DHT22;65100;46.884;17.410;2023-12-22T09:06:37;8.97;59.09
76291;DHT22;65100;46.884;17.410;2023-12-22T09:09:03;8.78;58.74
76291;DHT22;65100;46.884;17.410;2023-12-22T09:11:29;8.60;58.75
76291;DHT22;65100;46.884;17.410;2023-12-22T09:13:55;8.65;60.01
76291;DHT22;65100;46.884;17.410;2023-12-22T09:16:24;8.82;60.22
76291;DHT22;65100;46.884;17.410;2023-12-22T09:18:52;8.88;60.14
76291;DHT22;65100;46.884;17.410;2023-12-22T09:21:18;9.01;59.34
76291;DHT22;65100;46.884;17.410;2023-12-22T09:23:45;9.05;60.10
76291;DHT22;65100;46.884;17.410;2023-12-22T09:26:14;9.04;60.29
76291;DHT22;65100;46.884;17.410;2023-12-22T09:28:40;9.11;60.31
76291;DHT22;65100;46.884;17.410;2023-12-22T09:31:09;8.89;61.17
76291;DHT22;65100;46.884;17.410;2023-12-22T09:33:35;9.05;62.24
76291;DHT22;65100;46.884;17.410;2023-12-22T09:36:00;9.07;59.84
76291;DHT22;65100;46.884;17.410;2023-12-22T09:38:26;9.08;59.76
76291;DHT22;65100;46.884;17.410;2023-12-22T09:40:53;9.11;60.51
76291;DHT22;65100;46.884;17.410;2023-12-22T09:43:19;9.08;59.40
76291;DHT22;65100;46.884;17.410;2023-12-22T09:45:52;9.16;60.17
76291;DHT22;65100;46.884;17.410;2023-12-22T09:48:18;9.11;59.09
76291;DHT22;65100;46.884;17.410;2023-12-22T09:51:07;9.04;59.90
76291;DHT22;65100;46.884;17.410;2023-12-22T09:53:54;9.15;59.22
76291;DHT22;65100;46.884;17.410;2023-12-22T09:56:22;9.10;59.62
76291;DHT22;65100;46.884;17.410;2023-12-22T09:58:49;9.11;59.26
76291;DHT22;65100;46.884;17.410;2023-12-22T10:01:17;9.07;58.74
76291;DHT22;65100;46.884;17.410;2023-12-22T10:03:46;9.25;60.16
76291;DHT22;65100;46.884;17.410;2023-12-22T10:06:12;9.32;58.92
76291;DHT22;65100;46.884;17.410;2023-12-22T10:08:37;9.28;58.55
76291;DHT22;65100;46.884;17.410;2023-12-22T10:11:04;9.24;57.85
76291;DHT22;65100;46.884;17.410;2023-12-22T10:13:33;9.25;58.93
76291;DHT22;65100;46.884;17.410;2023-12-22T10:16:01;9.39;59.72
76291;DHT22;65100;46.884;17.410;2023-12-22T10:18:28;9.36;59.89
76291;DHT22;65100;46.884;17.410;2023-12-22T10:20:54;9.46;59.46
76291;DHT22;65100;46.884;17.410;2023-12-22T10:23:19;9.29;59.23
76291;DHT22;65100;46.884;17.410;2023-12-22T10:25:45;9.31;60.12
76291;DHT22;65100;46.884;17.410;2023-12-22T10:28:11;9.35;59.52
76291;DHT22;65100;46.884;17.410;2023-12-22T10:30:40;9.28;60.92
76291;DHT22;65100;46.884;17.410;2023-12-22T10:33:06;9.18;59.89
76291;DHT22;65100;46.884;17.410;2023-12-22T10:35:31;9.29;60.80
76291;DHT22;65100;46.884;17.410;2023-12-22T10:37:58;9.40;59.21
76291;DHT22;65100;46.884;17.410;2023-12-22T10:40:25;9.22;59.86
76291;DHT22;65100;46.884;17.410;2023-12-22T10:42:51;9.36;58.88
76291;DHT22;65100;46.884;17.410;2023-12-22T10:45:18;9.45;60.51
76291;DHT22;65100;46.884;17.410;2023-12-22T10:47:43;9.45;59.07
76291;DHT22;65100;46.884;17.410;2023-12-22T10:50:12;9.43;57.97
76291;DHT22;65100;46.884;17.410;2023-12-22T10:52:38;9.42;58.32
76291;DHT22;65100;46.884;17.410;2023-12-22T10:55:03;9.43;56.71
76291;DHT22;65100;46.884;17.410;2023-12-22T10:57:31;9.40;58.07
76291;DHT22;65100;46.884;17.410;2023-12-22T11:00:03;9.42;57.62
76291;DHT22;65100;46.884;17.410;2023-12-22T11:02:33;9.50;55.37
76291;DHT22;65100;46.884;17.410;2023-12-22T11:05:03;9.45;55.58
76291;DHT22;65100;46.884;17.410;2023-12-22T11:07:34;9.43;55.77
76291;DHT22;65100;46.884;17.410;2023-12-22T11:10:06;9.49;55.82
76291;DHT22;65100;46.884;17.410;2023-12-22T11:12:34;9.58;56.92
76291;DHT22;65100;46.884;17.410;2023-12-22T11:15:01;9.63;55.96
76291;DHT22;65100;46.884;17.410;2023-12-22T11:17:29;9.56;54.67
76291;DHT22;65100;46.884;17.410;2023-12-22T11:19:56;9.59;54.93
76291;DHT22;65100;46.884;17.410;2023-12-22T11:22:22;9.66;54.89
76291;DHT22;65100;46.884;17.410;2023-12-22T11:24:48;9.79;54.71
76291;DHT22;65100;46.884;17.410;2023-12-22T11:27:18;9.86;53.43
76291;DHT22;65100;46.884;17.410;2023-12-22T11:29:48;10.00;54.60
76291;DHT22;65100;46.884;17.410;2023-12-22T11:32:18;10.02;54.51
76291;DHT22;65100;46.884;17.410;2023-12-22T11:34:45;10.16;53.54
76291;DHT22;65100;46.884;17.410;2023-12-22T11:37:12;10.34;53.43
76291;DHT22;65100;46.884;17.410;2023-12-22T11:39:44;10.50;53.47
76291;DHT22;65100;46.884;17.410;2023-12-22T11:42:22;10.58;52.71
76291;DHT22;65100;46.884;17.410;2023-12-22T11:44:48;10.67;53.40
76291;DHT22;65100;46.884;17.410;2023-12-22T11:47:14;10.44;53.50
76291;DHT22;65100;46.884;17.410;2023-12-22T11:49:40;10.36;53.13
76291;DHT22;65100;46.884;17.410;2023-12-22T11:52:16;10.21;54.75
76291;DHT22;65100;46.884;17.410;2023-12-22T11:54:45;9.99;55.35
76291;DHT22;65100;46.884;17.410;2023-12-22T11:57:35;10.02;55.27
76291;DHT22;65100;46.884;17.410;2023-12-22T12:02:36;9.99;55.65
76291;DHT22;65100;46.884;17.410;2023-12-22T12:05:03;9.92;56.46
76291;DHT22;65100;46.884;17.410;2023-12-22T12:07:39;10.02;55.09
76291;DHT22;65100;46.884;17.410;2023-12-22T12:10:08;9.93;56.37
76291;DHT22;65100;46.884;17.410;2023-12-22T12:12:34;9.99;56.43
76291;DHT22;65100;46.884;17.410;2023-12-22T12:15:07;10.09;57.56
76291;DHT22;65100;46.884;17.410;2023-12-22T12:17:33;9.99;57.87
76291;DHT22;65100;46.884;17.410;2023-12-22T12:19:58;9.92;58.44
76291;DHT22;65100;46.884;17.410;2023-12-22T12:22:25;9.80;57.64
76291;DHT22;65100;46.884;17.410;2023-12-22T12:24:51;9.90;59.16
76291;DHT22;65100;46.884;17.410;2023-12-22T12:27:18;9.59;57.43
76291;DHT22;65100;46.884;17.410;2023-12-22T12:29:44;9.55;59.12
76291;DHT22;65100;46.884;17.410;2023-12-22T12:32:13;9.65;58.54
76291;DHT22;65100;46.884;17.410;2023-12-22T12:34:43;9.59;58.73
76291;DHT22;65100;46.884;17.410;2023-12-22T12:37:08;9.32;59.60
76291;DHT22;65100;46.884;17.410;2023-12-22T12:39:34;9.43;59.26
76291;DHT22;65100;46.884;17.410;2023-12-22T12:42:00;9.36;61.04
76291;DHT22;65100;46.884;17.410;2023-12-22T12:44:30;9.31;60.31
76291;DHT22;65100;46.884;17.410;2023-12-22T12:46:57;9.25;61.40
76291;DHT22;65100;46.884;17.410;2023-12-22T12:49:23;9.12;60.64
76291;DHT22;65100;46.884;17.410;2023-12-22T12:51:53;9.07;61.41
76291;DHT22;65100;46.884;17.410;2023-12-22T12:54:18;9.19;60.71
76291;DHT22;65100;46.884;17.410;2023-12-22T12:56:45;9.00;61.44
76291;DHT22;65100;46.884;17.410;2023-12-22T12:59:14;8.89;61.39
76291;DHT22;65100;46.884;17.410;2023-12-22T13:01:42;8.95;62.57
76291;DHT22;65100;46.884;17.410;2023-12-22T13:04:09;9.01;62.56
76291;DHT22;65100;46.884;17.410;2023-12-22T13:06:34;8.97;61.40
76291;DHT22;65100;46.884;17.410;2023-12-22T13:09:00;9.00;61.51
76291;DHT22;65100;46.884;17.410;2023-12-22T13:11:27;9.16;62.10
76291;DHT22;65100;46.884;17.410;2023-12-22T13:13:53;9.11;61.25
76291;DHT22;65100;46.884;17.410;2023-12-22T13:16:19;9.18;60.31
76291;DHT22;65100;46.884;17.410;2023-12-22T13:18:46;9.02;61.70
76291;DHT22;65100;46.884;17.410;2023-12-22T13:21:12;9.07;61.70
76291;DHT22;65100;46.884;17.410;2023-12-22T13:23:37;9.02;62.24
76291;DHT22;65100;46.884;17.410;2023-12-22T13:26:03;9.02;61.74
76291;DHT22;65100;46.884;17.410;2023-12-22T13:28:28;9.08;60.80
76291;DHT22;65100;46.884;17.410;2023-12-22T13:30:54;9.07;61.68
76291;DHT22;65100;46.884;17.410;2023-12-22T13:33:20;9.08;60.86
76291;DHT22;65100;46.884;17.410;2023-12-22T13:35:46;8.98;60.16
76291;DHT22;65100;46.884;17.410;2023-12-22T13:38:12;9.05;60.86
76291;DHT22;65100;46.884;17.410;2023-12-22T13:40:38;9.02;59.86
76291;DHT22;65100;46.884;17.410;2023-12-22T13:43:04;8.95;58.83
76291;DHT22;65100;46.884;17.410;2023-12-22T13:45:33;9.02;59.29
76291;DHT22;65100;46.884;17.410;2023-12-22T13:47:58;9.02;59.86
76291;DHT22;65100;46.884;17.410;2023-12-22T13:50:24;8.95;59.31
76291;DHT22;65100;46.884;17.410;2023-12-22T13:52:50;8.97;59.07
76291;DHT22;65100;46.884;17.410;2023-12-22T13:55:18;8.98;59.74
76291;DHT22;65100;46.884;17.410;2023-12-22T13:57:44;8.82;59.33
76291;DHT22;65100;46.884;17.410;2023-12-22T14:02:48;9.11;58.99
76291;DHT22;65100;46.884;17.410;2023-12-22T14:05:18;9.18;57.81
76291;DHT22;65100;46.884;17.410;2023-12-22T14:07:44;9.14;57.45
76291;DHT22;65100;46.884;17.410;2023-12-22T14:10:10;9.04;58.06
76291;DHT22;65100;46.884;17.410;2023-12-22T14:12:36;9.02;57.73
76291;DHT22;65100;46.884;17.410;2023-12-22T14:15:06;8.94;58.38
76291;DHT22;65100;46.884;17.410;2023-12-22T14:17:32;8.92;58.69
76291;DHT22;65100;46.884;17.410;2023-12-22T14:19:57;8.91;59.30
76291;DHT22;65100;46.884;17.410;2023-12-22T14:22:23;8.91;58.66
76291;DHT22;65100;46.884;17.410;2023-12-22T14:24:48;8.97;57.61
76291;DHT22;65100;46.884;17.410;2023-12-22T14:27:14;8.87;56.76
76291;DHT22;65100;46.884;17.410;2023-12-22T14:29:39;9.00;57.49
76291;DHT22;65100;46.884;17.410;2023-12-22T14:32:07;9.02;56.80
76291;DHT22;65100;46.884;17.410;2023-12-22T14:34:40;9.18;56.69
76291;DHT22;65100;46.884;17.410;2023-12-22T14:37:06;9.15;53.74
76291;DHT22;65100;46.884;17.410;2023-12-22T14:39:31;9.15;52.94
76291;DHT22;65100;46.884;17.410;2023-12-22T14:41:58;9.25;54.61
76291;DHT22;65100;46.884;17.410;2023-12-22T14:44:24;9.29;52.52
76291;DHT22;65100;46.884;17.410;2023-12-22T14:46:49;9.24;53.28
76291;DHT22;65100;46.884;17.410;2023-12-22T14:49:15;9.24;51.93
76291;DHT22;65100;46.884;17.410;2023-12-22T14:51:40;9.26;51.85
76291;DHT22;65100;46.884;17.410;2023-12-22T14:54:06;9.21;51.63
76291;DHT22;65100;46.884;17.410;2023-12-22T14:56:32;9.25;52.29
76291;DHT22;65100;46.884;17.410;2023-12-22T14:58:58;9.28;52.56
76291;DHT22;65100;46.884;17.410;2023-12-22T15:01:24;9.15;52.90
76291;DHT22;65100;46.884;17.410;2023-12-22T15:03:49;8.95;53.95
76291;DHT22;65100;46.884;17.410;2023-12-22T15:06:15;8.80;54.28
76291;DHT22;65100;46.884;17.410;2023-12-22T15:08:41;8.71;55.17
76291;DHT22;65100;46.884;17.410;2023-12-22T15:11:06;8.63;56.98
76291;DHT22;65100;46.884;17.410;2023-12-22T15:13:34;8.68;56.63
76291;DHT22;65100;46.884;17.410;2023-12-22T15:16:04;8.61;55.60
76291;DHT22;65100;46.884;17.410;2023-12-22T15:18:30;8.64;55.86
76291;DHT22;65100;46.884;17.410;2023-12-22T15:20:55;8.60;55.59
76291;DHT22;65100;46.884;17.410;2023-12-22T15:23:20;8.46;55.91
76291;DHT22;65100;46.884;17.410;2023-12-22T15:25:46;8.50;57.48
76291;DHT22;65100;46.884;17.410;2023-12-22T15:28:11;8.47;57.24
76291;DHT22;65100;46.884;17.410;2023-12-22T15:30:37;8.37;55.38
76291;DHT22;65100;46.884;17.410;2023-12-22T15:33:02;8.34;54.72